EDT,Max TemperatureF,Mean TemperatureF,Min TemperatureF,Max Dew PointF,MeanDew PointF,Min DewpointF,Max Humidity, Mean Humidity, Min Humidity, Max Sea Level PressureIn, Mean Sea Level PressureIn, Min Sea Level PressureIn, Max VisibilityMiles, Mean VisibilityMiles, Min VisibilityMiles, Max Wind SpeedMPH, Mean Wind SpeedMPH, Max Gust SpeedMPH,PrecipitationIn, CloudCover, Events, WindDirDegrees
2013-4-1,51,43,35,45,32,21,93,64,35,30.14,30.01,29.86,10,10,10,18,9,24,0.00,4,,304
2013-4-2,50,40,29,21,17,13,63,43,23,30.29,30.22,30.14,10,10,10,15,5,21,0.00,0,,323
2013-4-3,51,40,28,18,16,13,58,41,24,30.40,30.33,30.27,10,10,10,17,9,25,0.00,0,,51
2013-4-4,52,44,36,36,23,15,65,50,34,30.29,30.13,30.01,10,10,10,15,6,20,0.00,3,,86
2013-4-5,66,49,32,34,31,25,82,55,28,30.12,30.05,30.00,10,10,10,12,5,18,0.00,1,,322
2013-4-6,70,56,41,34,32,26,53,39,25,30.18,30.08,29.96,10,10,10,15,10,20,0.00,0,,136
2013-4-7,71,63,55,47,43,37,56,47,37,30.02,29.98,29.95,10,10,10,24,12,33,0.00,3,,202
2013-4-8,73,64,55,54,48,41,80,62,43,30.01,29.98,29.93,10,10,10,26,10,31,0.00,3,,190
2013-4-9,81,71,60,57,54,50,78,60,42,30.09,30.03,29.97,10,10,10,28,11,33,0.00,2,,196
2013-4-10,84,73,62,60,57,53,78,59,40,30.01,29.93,29.81,10,10,10,25,13,32,0.00,1,,188
2013-4-11,72,65,58,61,57,53,93,73,53,29.81,29.71,29.56,10,8,2,21,8,28,0.81,6,Rain,218
2013-4-12,59,50,41,57,43,33,100,75,50,29.97,29.73,29.55,10,8,2,22,12,31,0.38,7,Rain,259
2013-4-13,62,48,34,38,34,31,89,64,39,30.07,30.03,29.98,10,10,10,18,8,24,0.00,0,,243
2013-4-14,73,57,40,50,40,35,76,55,34,30.05,29.98,29.88,10,10,10,14,8,17,0.01,1,Rain,144
2013-4-15,70,63,56,55,52,48,78,68,57,30.02,29.97,29.92,10,10,10,14,8,24,0.00,6,,168
2013-4-16,81,70,58,64,59,54,86,70,54,30.21,30.09,29.98,10,9,2,26,12,33,0.38,4,Rain,180
2013-4-17,72,67,61,63,61,59,93,83,73,30.22,30.12,29.99,10,9,1,21,10,33,0.97,5,Rain-Thunderstorm,129
2013-4-18,82,73,63,61,57,51,84,62,39,29.97,29.85,29.66,10,10,10,32,17,40,0.00,0,,175
2013-4-19,73,55,37,63,42,32,93,73,53,30.07,29.78,29.50,10,9,2,37,16,45,0.53,7,Rain,250
2013-4-20,56,45,34,33,30,27,89,62,35,30.37,30.22,30.08,10,10,10,16,8,22,0.00,1,,274
2013-4-21,60,47,34,34,31,27,70,53,35,30.49,30.41,30.34,10,10,10,17,9,22,0.00,0,,53
2013-4-22,70,55,40,44,37,27,70,52,33,30.33,30.24,30.14,10,10,10,14,5,17,0.00,1,,123
2013-4-23,70,59,47,52,46,40,71,60,49,30.14,30.06,29.94,10,10,10,15,9,21,0.00,1,,176
2013-4-24,62,51,39,57,47,34,93,79,64,30.27,29.99,29.83,10,7,1,26,11,35,0.94,7,Rain-Thunderstorm,251
2013-4-25,61,47,33,38,35,31,92,68,44,30.38,30.32,30.28,10,10,6,15,6,23,0.00,1,,247
2013-4-26,61,51,41,34,32,29,70,53,36,30.46,30.40,30.33,10,10,10,8,5,10,0.00,1,,65
2013-4-27,58,55,51,54,51,44,93,80,67,30.36,30.19,30.05,10,9,3,17,6,23,0.30,8,Rain,140
2013-4-28,68,60,51,61,55,50,100,84,68,30.03,29.92,29.84,10,9,2,24,10,31,0.55,6,Rain-Thunderstorm,195
2013-4-29,65,58,50,55,53,48,100,82,63,30.04,29.99,29.94,10,6,1,8,4,10,0.00,7,,216
2013-4-30,78,64,49,58,53,48,100,70,40,30.06,30.02,29.98,10,10,9,12,5,17,0.00,0,,136